Observations for AMENDOLA IT-AFB, Italy (LIBA)

LIBA 230455Z 26006KT CAVOK 12/10 Q1015 RMK FEW FEW100 VIS MIN 9999 WIND THR11 26007KT WIND THR29 /////KT BLU
LIBA 230355Z 26005KT CAVOK 10/08 Q1014 RMK FEW FEW100 VIS MIN 9999 WIND THR11 28007KT WIND THR29 /////KT BLU
LIBA 230255Z 27005KT CAVOK 10/08 Q1014 RMK FEW FEW100 VIS MIN 9999 WIND THR11 28007KT WIND THR29 /////KT BLU
LIBA 230155Z 28005KT CAVOK 11/10 Q1015  
LIBA 230155Z 28005KT CAVOK 11/10 Q1015 RMK FEW FEW100 VIS MIN 9999 WIND THR11 28006KT WIND THR29 /////KT BLU
LIBA 230055Z 31004KT CAVOK 11/10 Q1015 RMK FEW FEW100 VIS MIN 9999 WIND THR11 31003KT WIND THR29 /////KT BLU
LIBA 222355Z 29005KT CAVOK 12/10 Q1015 RMK SKC VIS MIN 9999 WIND THR11 30004KT WIND THR29 /////KT BLU   
LIBA 222255Z 23004KT CAVOK 12/11 Q1015 RMK SKC VIS MIN 9999 WIND THR11 23003KT WIND THR29 /////KT BLU   
LIBA 222155Z 11002KT CAVOK 14/13 Q1015 RMK FEW FEW120 VIS MIN 9999 WIND THR11 VRB01KT WIND THR29 /////KT BLU
LIBA 222055Z 11005KT CAVOK 15/14 Q1015 RMK SCT SCT120 VIS MIN 9999 WIND THR11 13004KT WIND THR29 /////KT BLU
LIBA 221955Z 06004KT CAVOK 15/14 Q1015 RMK SCT SCT120 VIS MIN 9999 WIND THR11 05002KT WIND THR29 /////KT BLU
LIBA 221855Z 08003KT CAVOK 16/15 Q1014 RMK SCT SCT100 VIS MIN 9999 WIND THR11 08005KT WIND THR29 /////KT BLU
LIBA 221755Z 11004KT 9999 FEW040 17/15 Q1015 RMK SCT SCT100 VIS MIN 9999 WIND THR11 11006KT WIND THR29 /////KT BLU  
LIBA 221655Z 11007KT 9999 FEW040 18/15 Q1014 RMK BKN BKN100 VIS MIN 9999 WIND THR11 12009KT WIND THR29 /////KT BLU  
LIBA 221555Z 10007KT 9999 FEW040 19/14 Q1014 RMK BKN BKN100 VIS MIN 9999 WIND THR11 10009KT WIND THR29 /////KT BLU  
LIBA 221455Z 10009KT 9999 FEW040TCU 19/12 Q1014 RMK BKN BKN090 VIS MIN 9999 WIND THR11 10010KT WIND THR29 /////KT BLU   
LIBA 221355Z 10009KT 9999 FEW040TCU 22/11 Q1014 RMK BKN SCT090 VIS MIN 9999 WIND THR11 10010KT WIND THR29 /////KT BLU   
LIBA 221255Z 09006KT 9999 VCSH FEW040TCU 23/10 Q1015 RMK SCT SCT080 VIS MIN 9999 WIND THR11 09008KT WIND THR29 /////KT BLU  
LIBA 221155Z 32003KT 9999 FEW040TCU 23/08 Q1015 
LIBA 221155Z 32003KT 9999 FEW040TCU 23/08 Q1015 RMK BKN SCT080 VIS MIN 9999 WIND THR11 27004KT WIND THR29 /////KT BLU
LIBA 221055Z 33005KT 9999 FEW030 SCT050 23/09 Q1015 
LIBA 221055Z 33005KT 9999 FEW030 SCT050 23/09 Q1015 RMK BKN VIS MIN 9999 WIND THR11 33007KT WIND THR29 /////KT BLU
LIBA 220955Z 29008KT 9999 SCT030 23/10 Q1015
LIBA 220955Z 29008KT 9999 SCT030 23/10 Q1015 RMK SCT VIS MIN 9999 WIND THR11 27008KT WIND THR29 /////KT BLU
LIBA 220855Z 28008KT 9999 SCT030 21/10 Q1015
LIBA 220855Z 28008KT 9999 SCT030 21/10 Q1015 RMK SCT VIS MIN 9999 WIND THR11 28008KT WIND THR29 /////KT BLU
LIBA 220755Z 28007KT 9999 FEW030 20/11 Q1015
LIBA 220755Z 28007KT 9999 FEW030 20/11 Q1015 RMK FEW VIS MIN 9999 WIND THR11 28008KT WIND THR29 /////KT BLU
LIBA 220655Z 28007KT CAVOK 18/11 Q1015  
LIBA 220555Z 28004KT CAVOK 16/11 Q1015  
LIBA 220455Z 21004KT CAVOK 12/12 Q1015